Time;durP1;ratioP1;P1;durP2;ratioP2;P2;SDS_P1;SDS_P2;PMS_P1;PMS_P2;Temp;Humidity;BMP_temperature;BMP_pressure;BME280_temperature;BME280_humidity;BME280_pressure;Samples;Min_cycle;Max_cycle;Signal;HPM_P1;HPM_P2
2022/12/06 00:00:16;;;;;;;;;;;;;;;;;;5059471;28;19913;-79
2022/12/06 00:02:42;;;;;;;;;;;;;;;;;;5054300;28;19920;-79
2022/12/06 00:05:08;;;;;;;;;;;;;;;;;;5057817;28;20484;-79
2022/12/06 00:07:34;;;;;;;;;;;;;;;;;;5058149;28;19923;-79
2022/12/06 00:10:00;;;;;;;;;;;;;;;;;;5062346;28;19916;-77
2022/12/06 00:12:26;;;;;;;;;;;;;;;;;;5059282;28;19932;-78
2022/12/06 00:14:52;;;;;;;;;;;;;;;;;;5056449;28;19909;-78
2022/12/06 00:17:17;;;;;;;;;;;;;;;;;;5060671;28;19908;-78
2022/12/06 00:19:43;;;;;;;;;;;;;;;;;;5059003;28;19991;-78
2022/12/06 00:22:09;;;;;;;;;;;;;;;;;;5060360;28;19970;-77
2022/12/06 00:24:35;;;;;;;;;;;;;;;;;;5063370;28;19920;-77
2022/12/06 00:27:01;;;;;;;;;;;;;;;;;;5055318;28;19908;-76
2022/12/06 00:29:27;;;;;;;;;;;;;;;;;;5066414;28;20408;-77
2022/12/06 00:31:53;;;;;;;;;;;;;;;;;;5066762;28;20342;-77
2022/12/06 00:34:18;;;;;;;;;;;;;;;;;;5058533;28;19905;-77
2022/12/06 00:36:44;;;;;;;;;;;;;;;;;;5066750;28;20412;-77
2022/12/06 00:39:10;;;;;;;;;;;;;;;;;;5065439;28;20294;-77
2022/12/06 00:41:36;;;;;;;;;;;;;;;;;;5064426;28;19912;-78
2022/12/06 00:44:02;;;;;;;;;;;;;;;;;;5070699;28;20393;-78
2022/12/06 00:46:28;;;;;;;;;;;;;;;;;;5071118;28;19912;-77
2022/12/06 00:48:54;;;;;;;;;;;;;;;;;;5059225;28;20007;-78
2022/12/06 00:51:19;;;;;;;;;;;;;;;;;;5068752;28;19916;-78
2022/12/06 00:53:45;;;;;;;;;;;;;;;;;;5063167;28;19950;-77
2022/12/06 00:56:11;;;;;;;;;;;;;;;;;;5067758;28;19997;-77
2022/12/06 00:58:38;;;;;;;;;;;;;;;;;;5065448;28;19927;-78
2022/12/06 01:01:04;;;;;;;;;;;;;;;;;;5067777;28;19909;-78
2022/12/06 01:03:30;;;;;;;;;;;;;;;;;;5070416;28;20010;-78
2022/12/06 01:05:56;;;;;;;;;;;;;;;;;;5066131;28;19912;-77
2022/12/06 01:08:21;;;;;;;;;;;;;;;;;;5069332;28;19914;-78
2022/12/06 01:10:47;;;;;;;;;;;;;;;;;;5065154;28;19978;-78
2022/12/06 01:13:13;;;;;;;;;;;;;;;;;;5067379;28;19912;-78
2022/12/06 01:15:39;;;;;;;;;;;;;;;;;;5067370;28;19951;-78
2022/12/06 01:18:05;;;;;;;;;;;;;;;;;;5067458;28;19908;-78
2022/12/06 01:20:31;;;;;;;;;;;;;;;;;;5062139;28;20003;-78
2022/12/06 01:22:56;;;;;;;;;;;;;;;;;;5068610;28;20256;-77
2022/12/06 01:25:22;;;;;;;;;;;;;;;;;;5066458;28;19924;-78
2022/12/06 01:27:48;;;;;;;;;;;;;;;;;;5061027;28;19958;-78
2022/12/06 01:30:14;;;;;;;;;;;;;;;;;;5059706;28;19916;-78
2022/12/06 01:32:40;;;;;;;;;;;;;;;;;;5063366;28;19912;-78
2022/12/06 01:35:06;;;;;;;;;;;;;;;;;;5069535;28;20400;-78
2022/12/06 01:37:31;;;;;;;;;;;;;;;;;;5061292;28;19923;-78
2022/12/06 01:39:57;;;;;;;;;;;;;;;;;;5061296;28;19938;-78
2022/12/06 01:42:23;;;;;;;;;;;;;;;;;;5066703;28;20322;-78
2022/12/06 01:44:49;;;;;;;;;;;;;;;;;;5067343;28;19987;-78
2022/12/06 01:47:15;;;;;;;;;;;;;;;;;;5067068;28;19909;-78
2022/12/06 01:49:44;;;;;;;;;;;;;;;;;;5063188;28;19912;-81
2022/12/06 01:52:09;;;;;;;;;;;;;;;;;;5064714;28;20026;-78
2022/12/06 01:54:35;;;;;;;;;;;;;;;;;;5070183;28;19974;-78
2022/12/06 01:57:01;;;;;;;;;;;;;;;;;;5063997;28;19912;-78
2022/12/06 01:59:27;;;;;;;;;;;;;;;;;;5064313;28;20000;-78
2022/12/06 02:01:53;;;;;;;;;;;;;;;;;;5065598;28;19921;-77
2022/12/06 02:04:19;;;;;;;;;;;;;;;;;;5069878;28;19977;-78
2022/12/06 02:06:45;;;;;;;;;;;;;;;;;;5068618;28;19908;-77
2022/12/06 02:09:11;;;;;;;;;;;;;;;;;;5065387;28;19916;-78
2022/12/06 02:11:37;;;;;;;;;;;;;;;;;;5063328;28;19912;-78
2022/12/06 02:14:03;;;;;;;;;;;;;;;;;;5065687;28;19909;-78
2022/12/06 02:16:29;;;;;;;;;;;;;;;;;;5053772;28;19909;-78
2022/12/06 02:18:54;;;;;;;;;;;;;;;;;;5066579;28;19934;-78
2022/12/06 02:21:20;;;;;;;;;;;;;;;;;;5060033;28;20343;-78
2022/12/06 02:23:46;;;;;;;;;;;;;;;;;;5056006;28;19916;-78
2022/12/06 02:26:12;;;;;;;;;;;;;;;;;;5062805;28;19915;-79
2022/12/06 02:28:38;;;;;;;;;;;;;;;;;;5065132;28;19991;-79
2022/12/06 02:31:04;;;;;;;;;;;;;;;;;;5060373;28;19908;-78
2022/12/06 02:33:30;;;;;;;;;;;;;;;;;;5065145;28;19919;-79
2022/12/06 02:35:55;;;;;;;;;;;;;;;;;;5057030;28;19965;-79
2022/12/06 02:38:21;;;;;;;;;;;;;;;;;;5059945;28;19909;-79
2022/12/06 02:40:47;;;;;;;;;;;;;;;;;;5059799;28;19916;-78
2022/12/06 02:43:13;;;;;;;;;;;;;;;;;;5054512;28;19924;-79
2022/12/06 02:45:39;;;;;;;;;;;;;;;;;;5056186;28;19929;-79
2022/12/06 02:48:05;;;;;;;;;;;;;;;;;;5063424;28;20187;-79
2022/12/06 02:50:31;;;;;;;;;;;;;;;;;;5064824;28;19916;-79
2022/12/06 02:52:56;;;;;;;;;;;;;;;;;;5066968;28;20481;-79
2022/12/06 02:55:25;;;;;;;;;;;;;;;;;;5063575;28;20368;-79
2022/12/06 02:57:51;;;;;;;;;;;;;;;;;;5054099;28;19908;-78
2022/12/06 03:00:17;;;;;;;;;;;;;;;;;;5068110;28;20432;-78
2022/12/06 03:02:43;;;;;;;;;;;;;;;;;;5065950;28;19947;-79
2022/12/06 03:05:09;;;;;;;;;;;;;;;;;;5060438;28;19920;-78
2022/12/06 03:07:35;;;;;;;;;;;;;;;;;;5060940;28;19908;-79
2022/12/06 03:10:01;;;;;;;;;;;;;;;;;;5065078;28;19934;-78
2022/12/06 03:12:35;;;;;;;;;;;;;;;;;;5052641;28;19912;-78
2022/12/06 03:15:01;;;;;;;;;;;;;;;;;;5065420;28;19920;-79
2022/12/06 03:17:27;;;;;;;;;;;;;;;;;;5066087;28;19935;-79
2022/12/06 03:19:53;;;;;;;;;;;;;;;;;;5065152;28;19914;-79
2022/12/06 03:22:19;;;;;;;;;;;;;;;;;;5064467;28;19923;-79
2022/12/06 03:24:44;;;;;;;;;;;;;;;;;;5059559;28;19925;-79
2022/12/06 03:27:10;;;;;;;;;;;;;;;;;;5064785;28;20007;-79
2022/12/06 03:29:36;;;;;;;;;;;;;;;;;;5067942;28;19913;-78
2022/12/06 03:32:02;;;;;;;;;;;;;;;;;;5067287;28;20444;-79
2022/12/06 03:34:28;;;;;;;;;;;;;;;;;;5063362;28;19908;-79
2022/12/06 03:36:54;;;;;;;;;;;;;;;;;;5063452;28;19912;-79
2022/12/06 03:39:19;;;;;;;;;;;;;;;;;;5067298;28;20351;-79
2022/12/06 03:41:45;;;;;;;;;;;;;;;;;;5065985;28;19927;-78
2022/12/06 03:44:11;;;;;;;;;;;;;;;;;;5063610;28;20003;-79
2022/12/06 03:46:37;;;;;;;;;;;;;;;;;;5062766;28;19909;-78
2022/12/06 03:49:03;;;;;;;;;;;;;;;;;;5057371;28;19916;-79
2022/12/06 03:51:29;;;;;;;;;;;;;;;;;;5060560;28;19999;-79
2022/12/06 03:53:55;;;;;;;;;;;;;;;;;;5055642;28;19908;-79
2022/12/06 03:56:20;;;;;;;;;;;;;;;;;;5061426;28;19915;-78
2022/12/06 03:58:46;;;;;;;;;;;;;;;;;;5055476;28;19913;-79
2022/12/06 04:01:12;;;;;;;;;;;;;;;;;;5062690;28;19954;-79
2022/12/06 04:03:38;;;;;;;;;;;;;;;;;;5066573;28;19928;-79
2022/12/06 04:06:04;;;;;;;;;;;;;;;;;;5063822;28;20373;-78
2022/12/06 04:08:30;;;;;;;;;;;;;;;;;;5058100;28;19991;-79
2022/12/06 04:10:56;;;;;;;;;;;;;;;;;;5070064;28;19927;-79
2022/12/06 04:13:22;;;;;;;;;;;;;;;;;;5070657;28;20274;-78
2022/12/06 04:15:48;;;;;;;;;;;;;;;;;;5062918;28;19934;-78
2022/12/06 04:18:14;;;;;;;;;;;;;;;;;;5059382;28;19927;-79
2022/12/06 04:23:24;;;;;;;;;;;;;;;;;;5069996;28;20376;-78
2022/12/06 04:25:50;;;;;;;;;;;;;;;;;;5066025;28;20018;-78
2022/12/06 04:39:15;;;;;;;;;;;;;;;;;;5068443;28;19914;-79
2022/12/06 04:44:25;;;;;;;;;;;;;;;;;;5064156;28;19974;-80
2022/12/06 04:46:51;;;;;;;;;;;;;;;;;;5061874;28;19955;-80
2022/12/06 04:49:17;;;;;;;;;;;;;;;;;;5067691;28;19912;-80
2022/12/06 04:51:43;;;;;;;;;;;;;;;;;;5065651;28;19916;-79
2022/12/06 04:54:09;;;;;;;;;;;;;;;;;;5067450;28;19983;-78
2022/12/06 04:56:34;;;;;;;;;;;;;;;;;;5063911;28;19916;-82
2022/12/06 04:59:00;;;;;;;;;;;;;;;;;;5068731;28;20244;-79
2022/12/06 05:01:26;;;;;;;;;;;;;;;;;;5058507;28;20291;-78
2022/12/06 05:03:52;;;;;;;;;;;;;;;;;;5059061;28;19916;-79
2022/12/06 05:06:18;;;;;;;;;;;;;;;;;;5062859;28;19916;-78
2022/12/06 05:08:44;;;;;;;;;;;;;;;;;;5062472;28;20502;-79
2022/12/06 05:11:09;;;;;;;;;;;;;;;;;;5066157;28;19920;-79
2022/12/06 05:13:35;;;;;;;;;;;;;;;;;;5064365;28;19909;-78
2022/12/06 05:16:01;;;;;;;;;;;;;;;;;;5062344;28;19993;-79
2022/12/06 05:18:27;;;;;;;;;;;;;;;;;;5061431;28;19912;-79
2022/12/06 05:20:53;;;;;;;;;;;;;;;;;;5064833;28;19919;-79
2022/12/06 05:23:19;;;;;;;;;;;;;;;;;;5067131;28;20281;-78
2022/12/06 05:25:44;;;;;;;;;;;;;;;;;;5062921;28;19966;-79
2022/12/06 05:28:10;;;;;;;;;;;;;;;;;;5064596;28;20069;-79
2022/12/06 05:30:36;;;;;;;;;;;;;;;;;;5056108;28;20271;-85
2022/12/06 05:33:02;;;;;;;;;;;;;;;;;;5069060;28;19931;-89
2022/12/06 05:35:28;;;;;;;;;;;;;;;;;;5066375;28;19909;-92
2022/12/06 05:37:54;;;;;;;;;;;;;;;;;;5068035;28;19909;-90
2022/12/06 05:40:20;;;;;;;;;;;;;;;;;;5069229;28;20282;-79
2022/12/06 05:42:46;;;;;;;;;;;;;;;;;;5062747;28;19908;-79
2022/12/06 05:45:11;;;;;;;;;;;;;;;;;;5064311;28;20283;-79
2022/12/06 05:47:39;;;;;;;;;;;;;;;;;;5064360;28;19999;-79
2022/12/06 05:50:04;;;;;;;;;;;;;;;;;;5065922;28;20027;-79
2022/12/06 05:52:30;;;;;;;;;;;;;;;;;;5063345;28;20018;-80
2022/12/06 05:54:56;;;;;;;;;;;;;;;;;;5065506;28;19913;-79
2022/12/06 05:57:22;;;;;;;;;;;;;;;;;;5057345;28;19962;-80
2022/12/06 05:59:48;;;;;;;;;;;;;;;;;;5065765;28;19995;-80
2022/12/06 06:02:14;;;;;;;;;;;;;;;;;;5068611;28;19916;-79
2022/12/06 06:04:39;;;;;;;;;;;;;;;;;;5065891;28;19916;-79
2022/12/06 06:07:05;;;;;;;;;;;;;;;;;;5052853;28;19912;-80
2022/12/06 06:09:31;;;;;;;;;;;;;;;;;;5062056;28;19998;-80
2022/12/06 06:11:57;;;;;;;;;;;;;;;;;;5068516;28;20294;-79
2022/12/06 06:14:26;;;;;;;;;;;;;;;;;;5068518;28;19912;-79
2022/12/06 06:16:51;;;;;;;;;;;;;;;;;;5066092;28;19915;-79
2022/12/06 06:19:17;;;;;;;;;;;;;;;;;;5065369;28;19909;-79
2022/12/06 06:21:43;;;;;;;;;;;;;;;;;;5065309;28;20497;-79
2022/12/06 06:24:09;;;;;;;;;;;;;;;;;;5066634;28;19920;-79
2022/12/06 06:26:35;;;;;;;;;;;;;;;;;;5065988;28;20011;-79
2022/12/06 06:29:01;;;;;;;;;;;;;;;;;;5057683;28;19916;-79
2022/12/06 06:31:27;;;;;;;;;;;;;;;;;;5066238;28;20377;-79
2022/12/06 06:33:53;;;;;;;;;;;;;;;;;;5063072;28;19912;-79
2022/12/06 06:36:18;;;;;;;;;;;;;;;;;;5065648;28;19908;-79
2022/12/06 06:38:44;;;;;;;;;;;;;;;;;;5059018;28;19958;-79
2022/12/06 06:41:11;;;;;;;;;;;;;;;;;;5067313;28;19958;-79
2022/12/06 06:43:37;;;;;;;;;;;;;;;;;;5066564;28;19913;-79
2022/12/06 06:46:02;;;;;;;;;;;;;;;;;;5069283;28;20373;-79
2022/12/06 06:48:28;;;;;;;;;;;;;;;;;;5058672;28;20325;-79
2022/12/06 06:50:54;;;;;;;;;;;;;;;;;;5056642;28;19963;-78
2022/12/06 06:53:20;;;;;;;;;;;;;;;;;;5067118;28;19908;-79
2022/12/06 06:55:46;;;;;;;;;;;;;;;;;;5067913;28;20424;-79
2022/12/06 06:58:13;;;;;;;;;;;;;;;;;;5067831;28;19958;-78
2022/12/06 07:00:45;;;;;;;;;;;;;;;;;;5066770;28;20430;-79
2022/12/06 07:03:11;;;;;;;;;;;;;;;;;;5059131;28;19916;-79
2022/12/06 07:05:37;;;;;;;;;;;;;;;;;;5061685;28;19946;-80
2022/12/06 07:08:03;;;;;;;;;;;;;;;;;;5064274;28;19909;-80
2022/12/06 07:10:30;;;;;;;;;;;;;;;;;;5067383;28;19955;-80
2022/12/06 07:12:56;;;;;;;;;;;;;;;;;;5057893;28;19956;-80
2022/12/06 07:15:22;;;;;;;;;;;;;;;;;;5066595;28;20406;-80
2022/12/06 07:17:50;;;;;;;;;;;;;;;;;;5067431;28;20328;-80
2022/12/06 07:20:16;;;;;;;;;;;;;;;;;;5061363;28;19916;-79
2022/12/06 07:22:41;;;;;;;;;;;;;;;;;;5056543;28;19919;-79
2022/12/06 07:25:07;;;;;;;;;;;;;;;;;;5060923;28;19991;-80
2022/12/06 07:27:36;;;;;;;;;;;;;;;;;;5068090;28;20355;-79
2022/12/06 07:30:02;;;;;;;;;;;;;;;;;;5064902;28;19920;-78
2022/12/06 07:32:27;;;;;;;;;;;;;;;;;;5055808;28;19909;-78
2022/12/06 07:34:53;;;;;;;;;;;;;;;;;;5058174;28;19998;-78
2022/12/06 07:37:19;;;;;;;;;;;;;;;;;;5059854;28;19913;-79
2022/12/06 07:39:45;;;;;;;;;;;;;;;;;;5058619;28;19919;-79
2022/12/06 07:45:03;;;;;;;;;;;;;;;;;;5056990;28;19993;-79
2022/12/06 07:47:29;;;;;;;;;;;;;;;;;;5064126;28;19917;-79
2022/12/06 07:49:55;;;;;;;;;;;;;;;;;;5062837;28;20023;-79
2022/12/06 07:52:20;;;;;;;;;;;;;;;;;;5062693;28;19909;-78
2022/12/06 07:54:46;;;;;;;;;;;;;;;;;;5066238;28;19912;-80
2022/12/06 07:57:12;;;;;;;;;;;;;;;;;;5077395;28;19908;-81
2022/12/06 07:59:38;;;;;;;;;;;;;;;;;;5076743;28;20045;-80
2022/12/06 08:02:04;;;;;;;;;;;;;;;;;;5062429;28;19912;-80
2022/12/06 08:04:30;;;;;;;;;;;;;;;;;;5067343;28;20359;-80
2022/12/06 08:06:56;;;;;;;;;;;;;;;;;;5065482;28;20441;-81
2022/12/06 08:09:22;;;;;;;;;;;;;;;;;;5065544;28;20374;-79
2022/12/06 08:11:51;;;;;;;;;;;;;;;;;;5064132;28;19908;-79
2022/12/06 08:14:16;;;;;;;;;;;;;;;;;;5061109;28;19919;-79
2022/12/06 08:19:29;;;;;;;;;;;;;;;;;;5065089;28;19916;-76
2022/12/06 08:21:54;;;;;;;;;;;;;;;;;;5065068;28;19908;-76
2022/12/06 08:24:21;;;;;;;;;;;;;;;;;;5054104;28;19963;-76
2022/12/06 08:26:47;;;;;;;;;;;;;;;;;;5067085;28;19913;-77
2022/12/06 08:29:12;;;;;;;;;;;;;;;;;;5061552;28;19909;-78
2022/12/06 08:31:41;;;;;;;;;;;;;;;;;;5063053;28;19923;-83
2022/12/06 08:34:07;;;;;;;;;;;;;;;;;;5063376;28;20014;-79
2022/12/06 08:36:35;;;;;;;;;;;;;;;;;;5051853;28;20450;-77
2022/12/06 08:39:01;;;;;;;;;;;;;;;;;;5056187;28;20035;-78
2022/12/06 08:44:11;;;;;;;;;;;;;;;;;;5061644;28;19927;-82
2022/12/06 08:46:37;;;;;;;;;;;;;;;;;;5065793;28;20327;-79
2022/12/06 08:49:03;;;;;;;;;;;;;;;;;;5064051;28;19908;-79
2022/12/06 08:51:29;;;;;;;;;;;;;;;;;;5058790;28;20385;-79
2022/12/06 08:53:58;;;;;;;;;;;;;;;;;;5068741;28;19916;-79
2022/12/06 08:56:24;;;;;;;;;;;;;;;;;;5070145;28;19908;-79
2022/12/06 08:58:50;;;;;;;;;;;;;;;;;;5066584;28;20255;-79
2022/12/06 09:01:16;;;;;;;;;;;;;;;;;;5071475;28;19948;-77
2022/12/06 09:03:41;;;;;;;;;;;;;;;;;;5066780;28;19908;-82
2022/12/06 09:06:07;;;;;;;;;;;;;;;;;;5065724;28;20432;-79
2022/12/06 09:08:33;;;;;;;;;;;;;;;;;;5067644;28;20334;-79
2022/12/06 09:10:59;;;;;;;;;;;;;;;;;;5061729;28;19956;-79
2022/12/06 09:13:25;;;;;;;;;;;;;;;;;;5069755;28;19908;-78
2022/12/06 09:15:51;;;;;;;;;;;;;;;;;;5061034;28;20107;-78
2022/12/06 09:18:17;;;;;;;;;;;;;;;;;;5062194;28;19919;-79
2022/12/06 09:20:42;;;;;;;;;;;;;;;;;;5062908;28;20359;-85
2022/12/06 09:23:08;;;;;;;;;;;;;;;;;;5062135;28;19919;-77
2022/12/06 09:25:34;;;;;;;;;;;;;;;;;;5059862;28;19919;-77
2022/12/06 09:28:00;;;;;;;;;;;;;;;;;;5062741;28;19908;-82
2022/12/06 09:30:26;;;;;;;;;;;;;;;;;;5065149;28;20129;-77
2022/12/06 09:32:52;;;;;;;;;;;;;;;;;;5067521;28;19908;-77
2022/12/06 09:35:18;;;;;;;;;;;;;;;;;;5065588;28;19990;-79
2022/12/06 09:37:44;;;;;;;;;;;;;;;;;;5065382;28;19931;-77
2022/12/06 09:40:10;;;;;;;;;;;;;;;;;;5062705;28;19922;-76
2022/12/06 09:42:36;;;;;;;;;;;;;;;;;;5060918;28;19970;-76
2022/12/06 09:45:02;;;;;;;;;;;;;;;;;;5066037;28;20454;-77
2022/12/06 09:47:28;;;;;;;;;;;;;;;;;;5062073;28;20138;-76
2022/12/06 09:49:54;;;;;;;;;;;;;;;;;;5066125;28;20371;-77
2022/12/06 09:52:20;;;;;;;;;;;;;;;;;;5065163;28;19916;-77
2022/12/06 09:54:45;;;;;;;;;;;;;;;;;;5064877;28;19908;-77
2022/12/06 09:57:11;;;;;;;;;;;;;;;;;;5060123;28;19912;-76
2022/12/06 09:59:37;;;;;;;;;;;;;;;;;;5065478;28;20358;-77
2022/12/06 10:02:03;;;;;;;;;;;;;;;;;;5060945;28;20345;-77
2022/12/06 10:04:29;;;;;;;;;;;;;;;;;;5061778;28;19920;-77
2022/12/06 10:06:55;;;;;;;;;;;;;;;;;;5063320;28;20291;-77
2022/12/06 10:09:21;;;;;;;;;;;;;;;;;;5066360;28;19916;-76
2022/12/06 10:11:47;;;;;;;;;;;;;;;;;;5063341;28;20398;-75
2022/12/06 10:14:13;;;;;;;;;;;;;;;;;;5060716;28;19909;-76
2022/12/06 10:16:39;;;;;;;;;;;;;;;;;;5059349;28;19908;-78
2022/12/06 10:19:05;;;;;;;;;;;;;;;;;;5062083;28;19913;-76
2022/12/06 10:21:31;;;;;;;;;;;;;;;;;;5060371;28;19920;-76
2022/12/06 10:23:57;;;;;;;;;;;;;;;;;;5062222;28;19917;-74
2022/12/06 10:26:25;;;;;;;;;;;;;;;;;;5061425;28;19912;-74
2022/12/06 10:28:51;;;;;;;;;;;;;;;;;;5062104;28;19974;-73
2022/12/06 10:31:17;;;;;;;;;;;;;;;;;;5053633;28;19931;-75
2022/12/06 10:33:43;;;;;;;;;;;;;;;;;;5051863;28;19936;-75
2022/12/06 10:36:09;;;;;;;;;;;;;;;;;;5066075;28;19920;-76
2022/12/06 10:38:35;;;;;;;;;;;;;;;;;;5064220;28;19908;-76
2022/12/06 10:41:00;;;;;;;;;;;;;;;;;;5065574;28;19908;-75
2022/12/06 10:43:26;;;;;;;;;;;;;;;;;;5061263;28;19912;-76
2022/12/06 10:48:37;;;;;;;;;;;;;;;;;;5064370;28;20448;-76
2022/12/06 10:51:02;;;;;;;;;;;;;;;;;;5060863;28;19959;-76
2022/12/06 10:53:28;;;;;;;;;;;;;;;;;;5056377;28;19916;-76
2022/12/06 10:55:54;;;;;;;;;;;;;;;;;;5050936;28;20281;-76
2022/12/06 10:58:20;;;;;;;;;;;;;;;;;;5061961;28;20022;-76
2022/12/06 11:00:46;;;;;;;;;;;;;;;;;;5059452;28;19921;-76
2022/12/06 11:03:12;;;;;;;;;;;;;;;;;;5061462;28;19916;-76
2022/12/06 11:05:37;;;;;;;;;;;;;;;;;;5060880;28;19957;-75
2022/12/06 11:08:03;;;;;;;;;;;;;;;;;;5064665;28;19912;-75
2022/12/06 11:10:29;;;;;;;;;;;;;;;;;;5065735;28;20402;-74
2022/12/06 11:12:55;;;;;;;;;;;;;;;;;;5062121;28;20343;-75
2022/12/06 11:15:21;;;;;;;;;;;;;;;;;;5065719;28;19912;-75
2022/12/06 11:17:47;;;;;;;;;;;;;;;;;;5063343;28;19916;-75
2022/12/06 11:20:13;;;;;;;;;;;;;;;;;;5065899;28;19946;-74
2022/12/06 11:22:38;;;;;;;;;;;;;;;;;;5063133;28;20595;-75
2022/12/06 11:25:05;;;;;;;;;;;;;;;;;;5054467;28;20317;-74
2022/12/06 11:27:32;;;;;;;;;;;;;;;;;;5062574;28;19909;-76
2022/12/06 11:29:58;;;;;;;;;;;;;;;;;;5047488;28;19912;-75
2022/12/06 11:32:23;;;;;;;;;;;;;;;;;;5062274;28;20263;-75
2022/12/06 11:34:49;;;;;;;;;;;;;;;;;;5064345;28;20329;-75
2022/12/06 11:37:15;;;;;;;;;;;;;;;;;;5065082;28;19916;-76
2022/12/06 11:39:41;;;;;;;;;;;;;;;;;;5059874;28;19908;-74
2022/12/06 11:42:07;;;;;;;;;;;;;;;;;;5060127;28;19916;-74
2022/12/06 11:44:35;;;;;;;;;;;;;;;;;;5064369;28;19912;-74
2022/12/06 11:47:01;;;;;;;;;;;;;;;;;;5066185;28;20585;-75
2022/12/06 11:49:27;;;;;;;;;;;;;;;;;;5061985;28;20007;-73
2022/12/06 11:51:53;;;;;;;;;;;;;;;;;;5062819;28;20006;-73
2022/12/06 11:54:18;;;;;;;;;;;;;;;;;;5064588;28;19911;-73
2022/12/06 11:56:44;;;;;;;;;;;;;;;;;;5060257;28;19912;-72
2022/12/06 11:59:21;;;;;;;;;;;;;;;;;;5061992;28;19991;-72
2022/12/06 12:01:47;;;;;;;;;;;;;;;;;;5067788;28;19923;-73
2022/12/06 12:04:12;;;;;;;;;;;;;;;;;;5066335;28;19916;-73
2022/12/06 12:06:38;;;;;;;;;;;;;;;;;;5068247;28;19973;-73
2022/12/06 12:09:04;;;;;;;;;;;;;;;;;;5065474;28;19904;-73
2022/12/06 12:11:30;;;;;;;;;;;;;;;;;;5076463;28;19934;-72
2022/12/06 12:13:56;;;;;;;;;;;;;;;;;;5078010;28;19908;-73
2022/12/06 12:16:22;;;;;;;;;;;;;;;;;;5068344;28;20405;-73
2022/12/06 12:18:49;;;;;;;;;;;;;;;;;;5063817;28;20248;-73
2022/12/06 12:21:14;;;;;;;;;;;;;;;;;;5079916;28;19919;-73
2022/12/06 12:23:43;;;;;;;;;;;;;;;;;;5066961;28;20278;-73
2022/12/06 12:26:09;;;;;;;;;;;;;;;;;;5061675;28;19911;-73
2022/12/06 12:28:37;;;;;;;;;;;;;;;;;;5074402;28;19909;-73
2022/12/06 12:31:03;;;;;;;;;;;;;;;;;;5080027;28;19904;-74
2022/12/06 12:33:29;;;;;;;;;;;;;;;;;;5071474;28;19916;-73
2022/12/06 12:35:55;;;;;;;;;;;;;;;;;;5062880;28;19905;-73
2022/12/06 12:38:20;;;;;;;;;;;;;;;;;;5067878;28;20398;-73
2022/12/06 12:40:47;;;;;;;;;;;;;;;;;;5071662;28;20405;-73
2022/12/06 12:43:13;;;;;;;;;;;;;;;;;;5063111;28;20285;-73
2022/12/06 12:45:39;;;;;;;;;;;;;;;;;;5082628;28;19938;-74
2022/12/06 12:48:05;;;;;;;;;;;;;;;;;;5070191;28;20386;-73
2022/12/06 12:50:31;;;;;;;;;;;;;;;;;;5072020;28;19923;-73
2022/12/06 12:52:57;;;;;;;;;;;;;;;;;;5058032;28;20423;-72
2022/12/06 12:55:23;;;;;;;;;;;;;;;;;;5060772;28;20663;-72
2022/12/06 12:57:49;;;;;;;;;;;;;;;;;;5068080;28;19916;-74
2022/12/06 13:00:15;;;;;;;;;;;;;;;;;;5063765;28;19919;-73
2022/12/06 13:02:41;;;;;;;;;;;;;;;;;;5074605;28;20363;-74
2022/12/06 13:05:06;;;;;;;;;;;;;;;;;;5069645;28;19916;-72
2022/12/06 13:07:32;;;;;;;;;;;;;;;;;;5079762;28;19905;-73
2022/12/06 13:10:01;;;;;;;;;;;;;;;;;;5069450;28;19912;-72
2022/12/06 13:12:27;;;;;;;;;;;;;;;;;;5058764;28;19912;-73
2022/12/06 13:14:53;;;;;;;;;;;;;;;;;;5067098;28;20101;-73
2022/12/06 13:17:19;;;;;;;;;;;;;;;;;;5060590;28;19915;-75
2022/12/06 13:19:44;;;;;;;;;;;;;;;;;;5060081;28;19915;-76
2022/12/06 13:22:10;;;;;;;;;;;;;;;;;;5062188;28;19908;-76
2022/12/06 13:24:37;;;;;;;;;;;;;;;;;;5069546;28;19913;-76
2022/12/06 13:27:03;;;;;;;;;;;;;;;;;;5069089;28;19955;-75
2022/12/06 13:29:29;;;;;;;;;;;;;;;;;;5069353;28;19964;-76
2022/12/06 13:31:55;;;;;;;;;;;;;;;;;;5064863;28;19996;-76
2022/12/06 13:34:21;;;;;;;;;;;;;;;;;;5061325;28;20347;-76
2022/12/06 13:36:49;;;;;;;;;;;;;;;;;;5069275;28;19912;-76
2022/12/06 13:39:15;;;;;;;;;;;;;;;;;;5069938;28;19919;-76
2022/12/06 13:44:25;;;;;;;;;;;;;;;;;;5069233;28;19997;-77
2022/12/06 13:46:51;;;;;;;;;;;;;;;;;;5062320;28;19939;-76
2022/12/06 13:49:16;;;;;;;;;;;;;;;;;;5069997;28;19919;-76
2022/12/06 13:51:42;;;;;;;;;;;;;;;;;;5062590;28;19918;-76
2022/12/06 13:54:08;;;;;;;;;;;;;;;;;;5070187;28;19905;-75
2022/12/06 13:56:34;;;;;;;;;;;;;;;;;;5069010;28;19930;-75
2022/12/06 13:59:00;;;;;;;;;;;;;;;;;;5060305;28;19916;-76
2022/12/06 14:01:26;;;;;;;;;;;;;;;;;;5068957;28;19916;-76
2022/12/06 14:03:51;;;;;;;;;;;;;;;;;;5061759;28;20014;-76
2022/12/06 14:06:17;;;;;;;;;;;;;;;;;;5060803;28;19919;-76
2022/12/06 14:08:43;;;;;;;;;;;;;;;;;;5063222;28;19912;-75
2022/12/06 14:11:09;;;;;;;;;;;;;;;;;;5058239;28;20316;-75
2022/12/06 14:13:35;;;;;;;;;;;;;;;;;;5064644;28;19908;-76
2022/12/06 14:16:01;;;;;;;;;;;;;;;;;;5066994;28;19915;-76
2022/12/06 14:18:27;;;;;;;;;;;;;;;;;;5068991;28;19909;-76
2022/12/06 14:20:53;;;;;;;;;;;;;;;;;;5063311;28;19909;-76
2022/12/06 14:23:18;;;;;;;;;;;;;;;;;;5067167;28;20286;-76
2022/12/06 14:25:44;;;;;;;;;;;;;;;;;;5069242;28;20447;-75
2022/12/06 14:28:11;;;;;;;;;;;;;;;;;;5065195;28;20007;-76
2022/12/06 14:30:38;;;;;;;;;;;;;;;;;;5062986;28;19913;-76
2022/12/06 14:33:03;;;;;;;;;;;;;;;;;;5059361;28;19908;-76
2022/12/06 14:35:39;;;;;;;;;;;;;;;;;;5069559;28;19916;-76
2022/12/06 14:38:05;;;;;;;;;;;;;;;;;;5067927;28;19912;-75
2022/12/06 14:42:59;;;;;;;;;;;;;;;;;;5067791;28;19908;-76
2022/12/06 14:43:23;;;;;;;;;;;;;;;;;;5049950;28;19955;-76
2022/12/06 14:45:49;;;;;;;;;;;;;;;;;;5065129;28;19908;-76
2022/12/06 14:48:15;;;;;;;;;;;;;;;;;;5060380;28;19912;-76
2022/12/06 14:50:41;;;;;;;;;;;;;;;;;;5058650;28;19970;-76
2022/12/06 14:53:07;;;;;;;;;;;;;;;;;;5072379;28;19912;-75
2022/12/06 14:55:33;;;;;;;;;;;;;;;;;;5062125;28;19916;-76
2022/12/06 14:57:59;;;;;;;;;;;;;;;;;;5062686;28;19905;-76
2022/12/06 15:00:25;;;;;;;;;;;;;;;;;;5066005;28;19955;-75
2022/12/06 15:02:50;;;;;;;;;;;;;;;;;;5069100;28;20369;-75
2022/12/06 15:05:16;;;;;;;;;;;;;;;;;;5062229;28;19912;-75
2022/12/06 15:07:42;;;;;;;;;;;;;;;;;;5060434;28;19909;-77
2022/12/06 15:10:08;;;;;;;;;;;;;;;;;;5058501;28;20335;-76
2022/12/06 15:15:18;;;;;;;;;;;;;;;;;;5066198;28;19919;-77
2022/12/06 15:17:44;;;;;;;;;;;;;;;;;;5064328;28;19908;-75
2022/12/06 15:20:10;;;;;;;;;;;;;;;;;;5061029;28;19908;-73
2022/12/06 15:22:37;;;;;;;;;;;;;;;;;;5061322;28;19987;-76
2022/12/06 15:25:02;;;;;;;;;;;;;;;;;;5060610;28;19919;-77
2022/12/06 15:27:30;;;;;;;;;;;;;;;;;;5064542;28;19912;-77
2022/12/06 15:29:55;;;;;;;;;;;;;;;;;;5061708;28;19931;-78
2022/12/06 15:32:21;;;;;;;;;;;;;;;;;;5056763;28;20248;-78
2022/12/06 15:34:47;;;;;;;;;;;;;;;;;;5064978;28;20066;-76
2022/12/06 15:37:13;;;;;;;;;;;;;;;;;;5055055;28;19909;-76
2022/12/06 15:39:39;;;;;;;;;;;;;;;;;;5060452;28;19909;-75
2022/12/06 15:42:05;;;;;;;;;;;;;;;;;;5058857;28;19965;-81
2022/12/06 15:44:34;;;;;;;;;;;;;;;;;;5062278;28;19912;-78
2022/12/06 15:47:09;;;;;;;;;;;;;;;;;;5056571;28;19912;-76
2022/12/06 15:49:36;;;;;;;;;;;;;;;;;;5060099;28;19913;-75
2022/12/06 15:52:02;;;;;;;;;;;;;;;;;;5054251;28;20383;-76
2022/12/06 15:54:28;;;;;;;;;;;;;;;;;;5067533;28;19919;-76
2022/12/06 15:56:54;;;;;;;;;;;;;;;;;;5059011;28;19916;-76
2022/12/06 15:59:20;;;;;;;;;;;;;;;;;;5069756;28;19908;-76
2022/12/06 16:01:46;;;;;;;;;;;;;;;;;;5067180;28;19989;-75
2022/12/06 16:04:11;;;;;;;;;;;;;;;;;;5067698;28;19999;-75
2022/12/06 16:06:37;;;;;;;;;;;;;;;;;;5071428;28;20475;-75
2022/12/06 16:09:03;;;;;;;;;;;;;;;;;;5062590;28;19916;-76
2022/12/06 16:11:29;;;;;;;;;;;;;;;;;;5056807;28;19912;-76
2022/12/06 16:13:55;;;;;;;;;;;;;;;;;;5070137;28;19912;-75
2022/12/06 16:16:21;;;;;;;;;;;;;;;;;;5061240;28;19971;-75
2022/12/06 16:18:47;;;;;;;;;;;;;;;;;;5059067;28;19912;-77
2022/12/06 16:21:13;;;;;;;;;;;;;;;;;;5059148;28;19931;-76
2022/12/06 16:26:23;;;;;;;;;;;;;;;;;;5052839;28;20029;-76
2022/12/06 16:28:49;;;;;;;;;;;;;;;;;;5056094;28;20425;-76
2022/12/06 16:31:15;;;;;;;;;;;;;;;;;;5063985;28;19958;-76
2022/12/06 16:33:41;;;;;;;;;;;;;;;;;;5062771;28;20066;-75
2022/12/06 16:36:09;;;;;;;;;;;;;;;;;;5066160;28;20320;-76
2022/12/06 16:38:35;;;;;;;;;;;;;;;;;;5057171;28;19944;-76
2022/12/06 16:41:01;;;;;;;;;;;;;;;;;;5064045;28;20370;-82
2022/12/06 16:43:27;;;;;;;;;;;;;;;;;;5064244;28;20710;-82
2022/12/06 16:45:53;;;;;;;;;;;;;;;;;;5063198;28;19912;-82
2022/12/06 16:48:21;;;;;;;;;;;;;;;;;;5066748;28;19916;-79
2022/12/06 16:50:46;;;;;;;;;;;;;;;;;;5062216;28;19935;-81
2022/12/06 16:53:14;;;;;;;;;;;;;;;;;;5063953;28;19912;-77
2022/12/06 16:55:40;;;;;;;;;;;;;;;;;;5064402;28;19916;-73
2022/12/06 16:58:06;;;;;;;;;;;;;;;;;;5062046;28;19919;-78
2022/12/06 17:00:32;;;;;;;;;;;;;;;;;;5064235;28;19916;-76
2022/12/06 17:02:58;;;;;;;;;;;;;;;;;;5063730;28;20397;-75
2022/12/06 17:05:24;;;;;;;;;;;;;;;;;;5057721;28;19912;-81
2022/12/06 17:07:49;;;;;;;;;;;;;;;;;;5057198;28;19920;-81
2022/12/06 17:10:17;;;;;;;;;;;;;;;;;;5055773;28;19912;-80
2022/12/06 17:12:42;;;;;;;;;;;;;;;;;;5062443;28;19924;-81